sensor_id;sensor_type;location;lat;lon;timestamp;temperature;humidity
80274;DHT22;69576;51.902;-8.462;2023-11-18T00:01:55;14.90;75.20
80274;DHT22;69576;51.902;-8.462;2023-11-18T00:04:22;14.90;75.20
80274;DHT22;69576;51.902;-8.462;2023-11-18T00:06:48;14.90;75.30
80274;DHT22;69576;51.902;-8.462;2023-11-18T00:09:14;14.90;75.20
80274;DHT22;69576;51.902;-8.462;2023-11-18T00:11:40;14.90;75.30
80274;DHT22;69576;51.902;-8.462;2023-11-18T00:14:09;14.90;75.40
80274;DHT22;69576;51.902;-8.462;2023-11-18T00:16:39;14.90;75.40
80274;DHT22;69576;51.902;-8.462;2023-11-18T00:19:04;14.90;75.30
80274;DHT22;69576;51.902;-8.462;2023-11-18T00:21:31;14.90;75.30
80274;DHT22;69576;51.902;-8.462;2023-11-18T00:23:57;14.90;75.20
80274;DHT22;69576;51.902;-8.462;2023-11-18T00:26:23;14.90;75.10
80274;DHT22;69576;51.902;-8.462;2023-11-18T00:28:48;14.90;75.10
80274;DHT22;69576;51.902;-8.462;2023-11-18T00:31:14;14.90;75.10
80274;DHT22;69576;51.902;-8.462;2023-11-18T00:33:40;14.90;75.20
80274;DHT22;69576;51.902;-8.462;2023-11-18T00:36:06;14.90;75.10
80274;DHT22;69576;51.902;-8.462;2023-11-18T00:38:34;14.90;75.20
80274;DHT22;69576;51.902;-8.462;2023-11-18T00:41:03;14.90;75.10
80274;DHT22;69576;51.902;-8.462;2023-11-18T00:43:28;14.90;75.10
80274;DHT22;69576;51.902;-8.462;2023-11-18T00:46:01;14.80;75.10
80274;DHT22;69576;51.902;-8.462;2023-11-18T00:48:31;14.80;75.10
80274;DHT22;69576;51.902;-8.462;2023-11-18T00:50:57;14.80;75.10
80274;DHT22;69576;51.902;-8.462;2023-11-18T00:53:23;14.80;75.00
80274;DHT22;69576;51.902;-8.462;2023-11-18T00:55:50;14.90;75.00
80274;DHT22;69576;51.902;-8.462;2023-11-18T00:58:18;14.80;75.00
80274;DHT22;69576;51.902;-8.462;2023-11-18T01:00:46;14.80;74.90
80274;DHT22;69576;51.902;-8.462;2023-11-18T01:03:14;14.80;74.80
80274;DHT22;69576;51.902;-8.462;2023-11-18T01:05:43;14.80;74.90
80274;DHT22;69576;51.902;-8.462;2023-11-18T01:08:09;14.80;74.80
80274;DHT22;69576;51.902;-8.462;2023-11-18T01:10:40;14.80;74.80
80274;DHT22;69576;51.902;-8.462;2023-11-18T01:13:08;14.80;74.80
80274;DHT22;69576;51.902;-8.462;2023-11-18T01:15:39;14.80;74.80
80274;DHT22;69576;51.902;-8.462;2023-11-18T01:18:09;14.80;74.80
80274;DHT22;69576;51.902;-8.462;2023-11-18T01:20:37;14.80;74.70
80274;DHT22;69576;51.902;-8.462;2023-11-18T01:23:05;14.70;74.70
80274;DHT22;69576;51.902;-8.462;2023-11-18T01:25:33;14.70;74.80
80274;DHT22;69576;51.902;-8.462;2023-11-18T01:28:00;14.70;74.70
80274;DHT22;69576;51.902;-8.462;2023-11-18T01:30:29;14.70;74.70
80274;DHT22;69576;51.902;-8.462;2023-11-18T01:32:55;14.70;74.80
80274;DHT22;69576;51.902;-8.462;2023-11-18T01:35:22;14.70;74.80
80274;DHT22;69576;51.902;-8.462;2023-11-18T01:37:54;14.70;74.90
80274;DHT22;69576;51.902;-8.462;2023-11-18T01:40:20;14.70;74.80
80274;DHT22;69576;51.902;-8.462;2023-11-18T01:42:49;14.70;74.90
80274;DHT22;69576;51.902;-8.462;2023-11-18T01:45:17;14.70;74.90
80274;DHT22;69576;51.902;-8.462;2023-11-18T01:47:48;14.70;75.00
80274;DHT22;69576;51.902;-8.462;2023-11-18T01:50:15;14.70;75.00
80274;DHT22;69576;51.902;-8.462;2023-11-18T01:52:43;14.70;74.90
80274;DHT22;69576;51.902;-8.462;2023-11-18T01:55:10;14.70;75.00
80274;DHT22;69576;51.902;-8.462;2023-11-18T01:57:36;14.70;74.90
80274;DHT22;69576;51.902;-8.462;2023-11-18T02:00:03;14.70;74.90
80274;DHT22;69576;51.902;-8.462;2023-11-18T02:02:34;14.70;74.90
80274;DHT22;69576;51.902;-8.462;2023-11-18T02:05:04;14.70;75.00
80274;DHT22;69576;51.902;-8.462;2023-11-18T02:07:33;14.70;74.90
80274;DHT22;69576;51.902;-8.462;2023-11-18T02:10:02;14.70;74.90
80274;DHT22;69576;51.902;-8.462;2023-11-18T02:15:06;14.70;74.90
80274;DHT22;69576;51.902;-8.462;2023-11-18T02:17:41;14.70;74.90
80274;DHT22;69576;51.902;-8.462;2023-11-18T02:20:08;14.70;74.90
80274;DHT22;69576;51.902;-8.462;2023-11-18T02:22:44;14.70;74.80
80274;DHT22;69576;51.902;-8.462;2023-11-18T02:25:19;14.70;74.80
80274;DHT22;69576;51.902;-8.462;2023-11-18T02:27:47;14.70;74.80
80274;DHT22;69576;51.902;-8.462;2023-11-18T02:30:16;14.70;74.80
80274;DHT22;69576;51.902;-8.462;2023-11-18T02:33:01;14.70;74.80
80274;DHT22;69576;51.902;-8.462;2023-11-18T02:35:54;14.70;74.70
80274;DHT22;69576;51.902;-8.462;2023-11-18T02:38:34;14.70;74.80
80274;DHT22;69576;51.902;-8.462;2023-11-18T02:41:06;14.70;74.80
80274;DHT22;69576;51.902;-8.462;2023-11-18T02:43:36;14.70;74.80
80274;DHT22;69576;51.902;-8.462;2023-11-18T02:46:06;14.70;74.80
80274;DHT22;69576;51.902;-8.462;2023-11-18T02:48:34;14.70;74.80
80274;DHT22;69576;51.902;-8.462;2023-11-18T02:51:01;14.70;74.80
80274;DHT22;69576;51.902;-8.462;2023-11-18T02:53:29;14.70;74.80
80274;DHT22;69576;51.902;-8.462;2023-11-18T02:55:58;14.70;74.80
80274;DHT22;69576;51.902;-8.462;2023-11-18T02:58:31;14.70;74.80
80274;DHT22;69576;51.902;-8.462;2023-11-18T03:00:58;14.70;74.80
80274;DHT22;69576;51.902;-8.462;2023-11-18T03:03:26;14.70;74.80
80274;DHT22;69576;51.902;-8.462;2023-11-18T03:05:55;14.70;74.80
80274;DHT22;69576;51.902;-8.462;2023-11-18T03:08:21;14.70;74.80
80274;DHT22;69576;51.902;-8.462;2023-11-18T03:10:49;14.70;74.80
80274;DHT22;69576;51.902;-8.462;2023-11-18T03:13:18;14.70;74.90
80274;DHT22;69576;51.902;-8.462;2023-11-18T03:15:43;14.70;74.90
80274;DHT22;69576;51.902;-8.462;2023-11-18T03:18:14;14.70;74.90
80274;DHT22;69576;51.902;-8.462;2023-11-18T03:20:45;14.70;74.90
80274;DHT22;69576;51.902;-8.462;2023-11-18T03:23:13;14.70;75.00
80274;DHT22;69576;51.902;-8.462;2023-11-18T03:25:42;14.70;74.90
80274;DHT22;69576;51.902;-8.462;2023-11-18T03:28:07;14.70;74.90
80274;DHT22;69576;51.902;-8.462;2023-11-18T03:30:34;14.70;74.90
80274;DHT22;69576;51.902;-8.462;2023-11-18T03:33:02;14.70;74.90
80274;DHT22;69576;51.902;-8.462;2023-11-18T03:35:29;14.70;74.90
80274;DHT22;69576;51.902;-8.462;2023-11-18T03:37:55;14.70;74.90
80274;DHT22;69576;51.902;-8.462;2023-11-18T03:40:21;14.70;75.00
80274;DHT22;69576;51.902;-8.462;2023-11-18T03:42:49;14.70;75.00
80274;DHT22;69576;51.902;-8.462;2023-11-18T03:45:15;14.70;74.90
80274;DHT22;69576;51.902;-8.462;2023-11-18T03:47:45;14.70;75.00
80274;DHT22;69576;51.902;-8.462;2023-11-18T03:50:15;14.70;74.90
80274;DHT22;69576;51.902;-8.462;2023-11-18T03:52:41;14.70;75.00
80274;DHT22;69576;51.902;-8.462;2023-11-18T03:55:12;14.70;75.00
80274;DHT22;69576;51.902;-8.462;2023-11-18T03:57:42;14.70;75.00
80274;DHT22;69576;51.902;-8.462;2023-11-18T04:00:11;14.70;75.00
80274;DHT22;69576;51.902;-8.462;2023-11-18T04:02:40;14.70;75.00
80274;DHT22;69576;51.902;-8.462;2023-11-18T04:05:08;14.70;75.00
80274;DHT22;69576;51.902;-8.462;2023-11-18T04:07:37;14.70;75.00
80274;DHT22;69576;51.902;-8.462;2023-11-18T04:10:02;14.70;75.00
80274;DHT22;69576;51.902;-8.462;2023-11-18T04:12:32;14.70;75.00
80274;DHT22;69576;51.902;-8.462;2023-11-18T04:14:58;14.70;75.00
80274;DHT22;69576;51.902;-8.462;2023-11-18T04:17:26;14.70;74.90
80274;DHT22;69576;51.902;-8.462;2023-11-18T04:19:53;14.70;75.00
80274;DHT22;69576;51.902;-8.462;2023-11-18T04:22:24;14.70;75.00
80274;DHT22;69576;51.902;-8.462;2023-11-18T04:24:50;14.70;75.00
80274;DHT22;69576;51.902;-8.462;2023-11-18T04:27:16;14.70;75.00
80274;DHT22;69576;51.902;-8.462;2023-11-18T04:29:42;14.70;75.00
80274;DHT22;69576;51.902;-8.462;2023-11-18T04:32:10;14.70;75.00
80274;DHT22;69576;51.902;-8.462;2023-11-18T04:34:38;14.70;75.00
80274;DHT22;69576;51.902;-8.462;2023-11-18T04:37:04;14.70;75.00
80274;DHT22;69576;51.902;-8.462;2023-11-18T04:39:34;14.70;75.10
80274;DHT22;69576;51.902;-8.462;2023-11-18T04:42:00;14.70;75.10
80274;DHT22;69576;51.902;-8.462;2023-11-18T04:44:31;14.70;75.10
80274;DHT22;69576;51.902;-8.462;2023-11-18T04:46:57;14.70;75.20
80274;DHT22;69576;51.902;-8.462;2023-11-18T04:49:22;14.70;75.20
80274;DHT22;69576;51.902;-8.462;2023-11-18T04:51:48;14.70;75.20
80274;DHT22;69576;51.902;-8.462;2023-11-18T04:54:14;14.70;75.10
80274;DHT22;69576;51.902;-8.462;2023-11-18T04:56:40;14.70;75.20
80274;DHT22;69576;51.902;-8.462;2023-11-18T04:59:07;14.70;75.20
80274;DHT22;69576;51.902;-8.462;2023-11-18T05:01:33;14.70;75.20
80274;DHT22;69576;51.902;-8.462;2023-11-18T05:03:59;14.70;75.20
80274;DHT22;69576;51.902;-8.462;2023-11-18T05:06:25;14.70;75.20
80274;DHT22;69576;51.902;-8.462;2023-11-18T05:08:52;14.70;75.20
80274;DHT22;69576;51.902;-8.462;2023-11-18T05:11:20;14.70;75.20
80274;DHT22;69576;51.902;-8.462;2023-11-18T05:13:48;14.70;75.20
80274;DHT22;69576;51.902;-8.462;2023-11-18T05:16:14;14.70;75.30
80274;DHT22;69576;51.902;-8.462;2023-11-18T05:18:40;14.70;75.40
80274;DHT22;69576;51.902;-8.462;2023-11-18T05:21:09;14.70;75.30
80274;DHT22;69576;51.902;-8.462;2023-11-18T05:23:38;14.70;75.40
80274;DHT22;69576;51.902;-8.462;2023-11-18T05:26:04;14.70;75.40
80274;DHT22;69576;51.902;-8.462;2023-11-18T05:28:31;14.70;75.40
80274;DHT22;69576;51.902;-8.462;2023-11-18T05:30:57;14.70;75.40
80274;DHT22;69576;51.902;-8.462;2023-11-18T05:33:26;14.70;75.50
80274;DHT22;69576;51.902;-8.462;2023-11-18T05:35:53;14.70;75.50
80274;DHT22;69576;51.902;-8.462;2023-11-18T05:38:21;14.70;75.50
80274;DHT22;69576;51.902;-8.462;2023-11-18T05:40:51;14.70;75.40
80274;DHT22;69576;51.902;-8.462;2023-11-18T05:43:29;14.70;75.50
80274;DHT22;69576;51.902;-8.462;2023-11-18T05:46:00;14.70;75.50
80274;DHT22;69576;51.902;-8.462;2023-11-18T05:48:52;14.70;75.40
80274;DHT22;69576;51.902;-8.462;2023-11-18T05:51:20;14.70;75.40
80274;DHT22;69576;51.902;-8.462;2023-11-18T05:53:49;14.70;75.40
80274;DHT22;69576;51.902;-8.462;2023-11-18T05:56:15;14.70;75.40
80274;DHT22;69576;51.902;-8.462;2023-11-18T05:58:44;14.70;75.50
80274;DHT22;69576;51.902;-8.462;2023-11-18T06:01:10;14.70;75.50
80274;DHT22;69576;51.902;-8.462;2023-11-18T06:03:38;14.70;75.40
80274;DHT22;69576;51.902;-8.462;2023-11-18T06:06:15;14.70;75.40
80274;DHT22;69576;51.902;-8.462;2023-11-18T06:08:44;14.70;75.40
80274;DHT22;69576;51.902;-8.462;2023-11-18T06:11:11;14.70;75.40
80274;DHT22;69576;51.902;-8.462;2023-11-18T06:13:44;14.70;75.40
80274;DHT22;69576;51.902;-8.462;2023-11-18T06:16:21;14.70;75.40
80274;DHT22;69576;51.902;-8.462;2023-11-18T06:18:50;14.70;75.40
80274;DHT22;69576;51.902;-8.462;2023-11-18T06:21:20;14.70;75.40
80274;DHT22;69576;51.902;-8.462;2023-11-18T06:23:49;14.70;75.40
80274;DHT22;69576;51.902;-8.462;2023-11-18T06:26:18;14.70;75.40
80274;DHT22;69576;51.902;-8.462;2023-11-18T06:28:44;14.70;75.50
80274;DHT22;69576;51.902;-8.462;2023-11-18T06:31:11;14.70;75.50
80274;DHT22;69576;51.902;-8.462;2023-11-18T06:33:47;14.70;75.50
80274;DHT22;69576;51.902;-8.462;2023-11-18T06:38:48;14.70;75.40
80274;DHT22;69576;51.902;-8.462;2023-11-18T06:41:20;14.70;75.50
80274;DHT22;69576;51.902;-8.462;2023-11-18T06:43:49;14.70;75.40
80274;DHT22;69576;51.902;-8.462;2023-11-18T06:46:28;14.70;75.50
80274;DHT22;69576;51.902;-8.462;2023-11-18T06:49:00;14.70;75.40
80274;DHT22;69576;51.902;-8.462;2023-11-18T06:51:31;14.70;75.50
80274;DHT22;69576;51.902;-8.462;2023-11-18T06:54:00;14.70;75.50
80274;DHT22;69576;51.902;-8.462;2023-11-18T06:56:36;14.70;75.50
80274;DHT22;69576;51.902;-8.462;2023-11-18T06:59:09;14.70;75.50
80274;DHT22;69576;51.902;-8.462;2023-11-18T07:01:48;14.70;75.50
80274;DHT22;69576;51.902;-8.462;2023-11-18T07:04:16;14.60;75.50
80274;DHT22;69576;51.902;-8.462;2023-11-18T07:06:49;14.70;75.60
80274;DHT22;69576;51.902;-8.462;2023-11-18T07:09:16;14.60;75.60
80274;DHT22;69576;51.902;-8.462;2023-11-18T07:11:49;14.60;75.50
80274;DHT22;69576;51.902;-8.462;2023-11-18T07:14:16;14.60;75.50
80274;DHT22;69576;51.902;-8.462;2023-11-18T07:16:44;14.60;75.50
80274;DHT22;69576;51.902;-8.462;2023-11-18T07:19:10;14.60;75.50
80274;DHT22;69576;51.902;-8.462;2023-11-18T07:21:48;14.60;75.60
80274;DHT22;69576;51.902;-8.462;2023-11-18T07:24:14;14.60;75.50
80274;DHT22;69576;51.902;-8.462;2023-11-18T07:26:42;14.60;75.50
80274;DHT22;69576;51.902;-8.462;2023-11-18T07:29:12;14.70;75.50
80274;DHT22;69576;51.902;-8.462;2023-11-18T07:31:38;14.70;75.50
80274;DHT22;69576;51.902;-8.462;2023-11-18T07:34:04;14.70;75.50
80274;DHT22;69576;51.902;-8.462;2023-11-18T07:36:31;14.60;75.50
80274;DHT22;69576;51.902;-8.462;2023-11-18T07:38:58;14.70;75.50
80274;DHT22;69576;51.902;-8.462;2023-11-18T07:41:27;14.70;75.60
80274;DHT22;69576;51.902;-8.462;2023-11-18T07:43:56;14.70;75.50
80274;DHT22;69576;51.902;-8.462;2023-11-18T07:46:22;14.70;75.50
80274;DHT22;69576;51.902;-8.462;2023-11-18T07:48:54;14.70;75.50
80274;DHT22;69576;51.902;-8.462;2023-11-18T07:51:22;14.70;75.50
80274;DHT22;69576;51.902;-8.462;2023-11-18T07:53:49;14.60;75.50
80274;DHT22;69576;51.902;-8.462;2023-11-18T07:56:15;14.70;75.50
80274;DHT22;69576;51.902;-8.462;2023-11-18T07:58:42;14.70;75.60
80274;DHT22;69576;51.902;-8.462;2023-11-18T08:01:11;14.70;75.70
80274;DHT22;69576;51.902;-8.462;2023-11-18T08:03:39;14.70;75.70
80274;DHT22;69576;51.902;-8.462;2023-11-18T08:06:08;14.70;75.70
80274;DHT22;69576;51.902;-8.462;2023-11-18T08:08:34;14.70;75.80
80274;DHT22;69576;51.902;-8.462;2023-11-18T08:11:06;14.70;75.80
80274;DHT22;69576;51.902;-8.462;2023-11-18T08:13:32;14.70;75.90
80274;DHT22;69576;51.902;-8.462;2023-11-18T08:15:58;14.70;75.90
80274;DHT22;69576;51.902;-8.462;2023-11-18T08:18:24;14.70;76.00
80274;DHT22;69576;51.902;-8.462;2023-11-18T08:20:50;14.70;75.90
80274;DHT22;69576;51.902;-8.462;2023-11-18T08:23:16;14.80;76.00
80274;DHT22;69576;51.902;-8.462;2023-11-18T08:25:42;14.80;76.10
80274;DHT22;69576;51.902;-8.462;2023-11-18T08:28:08;14.80;76.20
80274;DHT22;69576;51.902;-8.462;2023-11-18T08:30:34;14.80;76.10
80274;DHT22;69576;51.902;-8.462;2023-11-18T08:33:07;14.90;76.10
80274;DHT22;69576;51.902;-8.462;2023-11-18T08:35:37;14.90;76.20
80274;DHT22;69576;51.902;-8.462;2023-11-18T08:38:05;14.90;76.20
80274;DHT22;69576;51.902;-8.462;2023-11-18T08:40:35;14.90;76.20
80274;DHT22;69576;51.902;-8.462;2023-11-18T08:43:01;15.00;76.20
80274;DHT22;69576;51.902;-8.462;2023-11-18T08:45:33;15.00;76.10
80274;DHT22;69576;51.902;-8.462;2023-11-18T08:48:04;15.00;76.00
80274;DHT22;69576;51.902;-8.462;2023-11-18T08:50:39;15.10;76.30
80274;DHT22;69576;51.902;-8.462;2023-11-18T08:53:08;15.20;76.30
80274;DHT22;69576;51.902;-8.462;2023-11-18T08:55:35;15.20;76.20
80274;DHT22;69576;51.902;-8.462;2023-11-18T08:58:16;15.30;76.10
80274;DHT22;69576;51.902;-8.462;2023-11-18T09:00:49;15.30;76.00
80274;DHT22;69576;51.902;-8.462;2023-11-18T09:03:29;15.40;76.00
80274;DHT22;69576;51.902;-8.462;2023-11-18T09:06:05;15.40;75.90
80274;DHT22;69576;51.902;-8.462;2023-11-18T09:08:36;15.40;75.80
80274;DHT22;69576;51.902;-8.462;2023-11-18T09:11:09;15.50;75.60
80274;DHT22;69576;51.902;-8.462;2023-11-18T09:13:47;15.50;75.50
80274;DHT22;69576;51.902;-8.462;2023-11-18T09:16:15;15.50;75.40
80274;DHT22;69576;51.902;-8.462;2023-11-18T09:18:43;15.50;75.40
80274;DHT22;69576;51.902;-8.462;2023-11-18T09:21:11;15.50;75.20
80274;DHT22;69576;51.902;-8.462;2023-11-18T09:23:41;15.60;75.20
80274;DHT22;69576;51.902;-8.462;2023-11-18T09:26:08;15.60;75.20
80274;DHT22;69576;51.902;-8.462;2023-11-18T09:28:37;15.60;75.10
80274;DHT22;69576;51.902;-8.462;2023-11-18T09:31:06;15.60;75.00
80274;DHT22;69576;51.902;-8.462;2023-11-18T09:33:38;15.60;75.00
80274;DHT22;69576;51.902;-8.462;2023-11-18T09:36:12;15.60;74.80
80274;DHT22;69576;51.902;-8.462;2023-11-18T09:38:46;15.60;74.70
80274;DHT22;69576;51.902;-8.462;2023-11-18T09:41:19;15.60;74.80
80274;DHT22;69576;51.902;-8.462;2023-11-18T09:43:52;15.60;74.70
80274;DHT22;69576;51.902;-8.462;2023-11-18T09:46:27;15.60;74.60
80274;DHT22;69576;51.902;-8.462;2023-11-18T09:49:21;15.70;74.50
80274;DHT22;69576;51.902;-8.462;2023-11-18T09:51:57;15.70;74.60
80274;DHT22;69576;51.902;-8.462;2023-11-18T09:54:40;15.70;74.70
80274;DHT22;69576;51.902;-8.462;2023-11-18T09:57:15;15.80;74.70
80274;DHT22;69576;51.902;-8.462;2023-11-18T09:59:52;15.80;74.70
80274;DHT22;69576;51.902;-8.462;2023-11-18T10:02:25;15.80;74.80
80274;DHT22;69576;51.902;-8.462;2023-11-18T10:04:56;15.80;74.90
80274;DHT22;69576;51.902;-8.462;2023-11-18T10:07:26;15.80;74.90
80274;DHT22;69576;51.902;-8.462;2023-11-18T10:09:54;15.80;74.90
80274;DHT22;69576;51.902;-8.462;2023-11-18T10:12:23;15.90;74.90
80274;DHT22;69576;51.902;-8.462;2023-11-18T10:14:51;15.90;74.70
80274;DHT22;69576;51.902;-8.462;2023-11-18T10:17:22;16.00;74.70
80274;DHT22;69576;51.902;-8.462;2023-11-18T10:19:59;16.00;74.60
80274;DHT22;69576;51.902;-8.462;2023-11-18T10:22:29;16.00;74.50
80274;DHT22;69576;51.902;-8.462;2023-11-18T10:24:58;16.00;74.40
80274;DHT22;69576;51.902;-8.462;2023-11-18T10:27:29;16.00;74.30
80274;DHT22;69576;51.902;-8.462;2023-11-18T10:29:57;15.90;74.30
80274;DHT22;69576;51.902;-8.462;2023-11-18T10:32:23;15.90;74.30
80274;DHT22;69576;51.902;-8.462;2023-11-18T10:34:58;15.90;74.30
80274;DHT22;69576;51.902;-8.462;2023-11-18T10:37:25;16.00;74.50
80274;DHT22;69576;51.902;-8.462;2023-11-18T10:39:51;16.00;74.40
80274;DHT22;69576;51.902;-8.462;2023-11-18T10:42:20;16.00;74.30
80274;DHT22;69576;51.902;-8.462;2023-11-18T10:44:56;16.00;74.30
80274;DHT22;69576;51.902;-8.462;2023-11-18T10:47:33;16.00;74.20
80274;DHT22;69576;51.902;-8.462;2023-11-18T10:49:59;16.00;74.10
80274;DHT22;69576;51.902;-8.462;2023-11-18T10:52:25;16.00;74.00
80274;DHT22;69576;51.902;-8.462;2023-11-18T10:55:01;16.00;74.00
80274;DHT22;69576;51.902;-8.462;2023-11-18T10:57:33;16.00;74.00
80274;DHT22;69576;51.902;-8.462;2023-11-18T11:00:02;16.00;74.00
80274;DHT22;69576;51.902;-8.462;2023-11-18T11:02:32;16.00;74.00
80274;DHT22;69576;51.902;-8.462;2023-11-18T11:05:09;16.00;73.90
80274;DHT22;69576;51.902;-8.462;2023-11-18T11:07:44;16.00;73.90
80274;DHT22;69576;51.902;-8.462;2023-11-18T11:10:10;16.00;73.80
80274;DHT22;69576;51.902;-8.462;2023-11-18T11:12:49;16.10;73.80
80274;DHT22;69576;51.902;-8.462;2023-11-18T11:15:41;16.10;73.80
80274;DHT22;69576;51.902;-8.462;2023-11-18T11:18:12;16.00;73.60
80274;DHT22;69576;51.902;-8.462;2023-11-18T11:21:17;16.00;73.50
80274;DHT22;69576;51.902;-8.462;2023-11-18T11:23:53;16.00;73.60
80274;DHT22;69576;51.902;-8.462;2023-11-18T11:26:53;16.00;73.60
80274;DHT22;69576;51.902;-8.462;2023-11-18T11:32:17;16.00;73.50
80274;DHT22;69576;51.902;-8.462;2023-11-18T11:35:00;16.00;73.50
80274;DHT22;69576;51.902;-8.462;2023-11-18T11:37:33;16.00;73.50
80274;DHT22;69576;51.902;-8.462;2023-11-18T11:40:08;16.00;73.50
80274;DHT22;69576;51.902;-8.462;2023-11-18T11:42:35;16.00;73.50
80274;DHT22;69576;51.902;-8.462;2023-11-18T11:45:02;16.00;73.40
80274;DHT22;69576;51.902;-8.462;2023-11-18T11:47:29;16.00;73.50
80274;DHT22;69576;51.902;-8.462;2023-11-18T11:50:15;16.00;73.40
80274;DHT22;69576;51.902;-8.462;2023-11-18T11:52:51;16.00;73.40
80274;DHT22;69576;51.902;-8.462;2023-11-18T11:55:29;16.00;73.50
80274;DHT22;69576;51.902;-8.462;2023-11-18T11:57:58;16.00;73.30
80274;DHT22;69576;51.902;-8.462;2023-11-18T12:00:25;16.00;73.30
80274;DHT22;69576;51.902;-8.462;2023-11-18T12:03:01;16.00;73.20
80274;DHT22;69576;51.902;-8.462;2023-11-18T12:05:32;16.00;73.20
80274;DHT22;69576;51.902;-8.462;2023-11-18T12:07:59;16.00;73.20
80274;DHT22;69576;51.902;-8.462;2023-11-18T12:10:30;16.00;73.30
80274;DHT22;69576;51.902;-8.462;2023-11-18T12:13:09;16.00;73.40
80274;DHT22;69576;51.902;-8.462;2023-11-18T12:15:58;16.10;73.20
80274;DHT22;69576;51.902;-8.462;2023-11-18T12:18:32;16.10;73.00
80274;DHT22;69576;51.902;-8.462;2023-11-18T12:20:59;16.10;73.00
80274;DHT22;69576;51.902;-8.462;2023-11-18T12:23:28;16.10;73.10
80274;DHT22;69576;51.902;-8.462;2023-11-18T12:25:54;16.10;72.90
80274;DHT22;69576;51.902;-8.462;2023-11-18T12:28:28;16.10;72.90
80274;DHT22;69576;51.902;-8.462;2023-11-18T12:30:56;16.10;73.00
80274;DHT22;69576;51.902;-8.462;2023-11-18T12:33:26;16.10;72.90
80274;DHT22;69576;51.902;-8.462;2023-11-18T12:41:42;16.00;72.90
80274;DHT22;69576;51.902;-8.462;2023-11-18T12:44:24;16.00;73.00
80274;DHT22;69576;51.902;-8.462;2023-11-18T12:47:01;16.00;72.80
80274;DHT22;69576;51.902;-8.462;2023-11-18T12:49:48;16.00;72.90
80274;DHT22;69576;51.902;-8.462;2023-11-18T12:52:22;16.00;72.90
80274;DHT22;69576;51.902;-8.462;2023-11-18T12:54:48;16.00;72.90
80274;DHT22;69576;51.902;-8.462;2023-11-18T12:57:20;16.00;72.80
80274;DHT22;69576;51.902;-8.462;2023-11-18T12:59:50;16.00;72.90
80274;DHT22;69576;51.902;-8.462;2023-11-18T13:02:16;16.00;72.90
80274;DHT22;69576;51.902;-8.462;2023-11-18T13:04:48;15.90;72.90
80274;DHT22;69576;51.902;-8.462;2023-11-18T13:07:19;15.90;72.90
80274;DHT22;69576;51.902;-8.462;2023-11-18T13:09:49;15.90;72.90
80274;DHT22;69576;51.902;-8.462;2023-11-18T13:12:18;15.90;72.90
80274;DHT22;69576;51.902;-8.462;2023-11-18T13:14:46;15.90;72.90
80274;DHT22;69576;51.902;-8.462;2023-11-18T13:17:18;15.90;72.90
80274;DHT22;69576;51.902;-8.462;2023-11-18T13:19:46;15.90;72.90
80274;DHT22;69576;51.902;-8.462;2023-11-18T13:22:19;15.90;72.90
80274;DHT22;69576;51.902;-8.462;2023-11-18T13:24:45;15.80;72.90
80274;DHT22;69576;51.902;-8.462;2023-11-18T13:27:16;15.80;72.90
80274;DHT22;69576;51.902;-8.462;2023-11-18T13:29:47;15.90;72.90
80274;DHT22;69576;51.902;-8.462;2023-11-18T13:32:18;15.90;72.90
80274;DHT22;69576;51.902;-8.462;2023-11-18T13:34:48;15.80;72.90
80274;DHT22;69576;51.902;-8.462;2023-11-18T13:37:19;15.80;72.90
80274;DHT22;69576;51.902;-8.462;2023-11-18T13:39:57;15.80;72.90
80274;DHT22;69576;51.902;-8.462;2023-11-18T13:42:27;15.80;72.80
80274;DHT22;69576;51.902;-8.462;2023-11-18T13:45:08;15.80;72.90
80274;DHT22;69576;51.902;-8.462;2023-11-18T13:47:35;15.90;72.80
80274;DHT22;69576;51.902;-8.462;2023-11-18T13:50:09;15.90;72.90
80274;DHT22;69576;51.902;-8.462;2023-11-18T13:52:36;15.80;72.90
80274;DHT22;69576;51.902;-8.462;2023-11-18T13:55:07;15.90;72.90
80274;DHT22;69576;51.902;-8.462;2023-11-18T13:57:39;16.00;72.90
80274;DHT22;69576;51.902;-8.462;2023-11-18T14:00:07;16.00;72.70
80274;DHT22;69576;51.902;-8.462;2023-11-18T14:02:41;16.00;72.70
80274;DHT22;69576;51.902;-8.462;2023-11-18T14:05:15;16.00;72.70
80274;DHT22;69576;51.902;-8.462;2023-11-18T14:07:42;16.00;72.70
80274;DHT22;69576;51.902;-8.462;2023-11-18T14:10:11;16.00;72.70
80274;DHT22;69576;51.902;-8.462;2023-11-18T14:13:06;16.00;72.50
80274;DHT22;69576;51.902;-8.462;2023-11-18T14:15:37;15.90;72.40
80274;DHT22;69576;51.902;-8.462;2023-11-18T14:18:04;15.90;72.50
80274;DHT22;69576;51.902;-8.462;2023-11-18T14:20:32;15.90;72.50
80274;DHT22;69576;51.902;-8.462;2023-11-18T14:23:01;15.80;72.50
80274;DHT22;69576;51.902;-8.462;2023-11-18T14:25:32;15.80;72.40
80274;DHT22;69576;51.902;-8.462;2023-11-18T14:27:58;15.80;72.30
80274;DHT22;69576;51.902;-8.462;2023-11-18T14:30:24;15.80;72.40
80274;DHT22;69576;51.902;-8.462;2023-11-18T14:32:55;15.80;72.30
80274;DHT22;69576;51.902;-8.462;2023-11-18T14:35:23;15.80;72.30
80274;DHT22;69576;51.902;-8.462;2023-11-18T14:37:52;15.80;72.30
80274;DHT22;69576;51.902;-8.462;2023-11-18T14:40:18;15.80;72.30
80274;DHT22;69576;51.902;-8.462;2023-11-18T14:42:46;15.80;72.40
80274;DHT22;69576;51.902;-8.462;2023-11-18T14:45:14;15.80;72.40
80274;DHT22;69576;51.902;-8.462;2023-11-18T14:47:40;15.80;72.40
80274;DHT22;69576;51.902;-8.462;2023-11-18T14:50:11;15.80;72.20
80274;DHT22;69576;51.902;-8.462;2023-11-18T14:52:50;15.80;72.30
80274;DHT22;69576;51.902;-8.462;2023-11-18T14:55:28;15.80;72.20
80274;DHT22;69576;51.902;-8.462;2023-11-18T14:57:58;15.70;72.20
80274;DHT22;69576;51.902;-8.462;2023-11-18T15:00:26;15.70;72.30
80274;DHT22;69576;51.902;-8.462;2023-11-18T15:02:54;15.70;72.30
80274;DHT22;69576;51.902;-8.462;2023-11-18T15:05:23;15.70;72.20
80274;DHT22;69576;51.902;-8.462;2023-11-18T15:07:53;15.70;72.20
80274;DHT22;69576;51.902;-8.462;2023-11-18T15:10:25;15.70;72.20
80274;DHT22;69576;51.902;-8.462;2023-11-18T15:12:58;15.70;72.10
80274;DHT22;69576;51.902;-8.462;2023-11-18T15:15:27;15.60;72.10
80274;DHT22;69576;51.902;-8.462;2023-11-18T15:18:08;15.60;72.20
80274;DHT22;69576;51.902;-8.462;2023-11-18T15:20:48;15.60;72.20
80274;DHT22;69576;51.902;-8.462;2023-11-18T15:23:15;15.60;72.20
80274;DHT22;69576;51.902;-8.462;2023-11-18T15:25:50;15.60;72.20
80274;DHT22;69576;51.902;-8.462;2023-11-18T15:28:16;15.60;72.20
80274;DHT22;69576;51.902;-8.462;2023-11-18T15:30:43;15.60;72.30
80274;DHT22;69576;51.902;-8.462;2023-11-18T15:33:14;15.60;72.20
80274;DHT22;69576;51.902;-8.462;2023-11-18T15:35:40;15.60;72.30
80274;DHT22;69576;51.902;-8.462;2023-11-18T15:38:07;15.60;72.30
80274;DHT22;69576;51.902;-8.462;2023-11-18T15:40:35;15.60;72.20
80274;DHT22;69576;51.902;-8.462;2023-11-18T15:43:03;15.60;72.20
80274;DHT22;69576;51.902;-8.462;2023-11-18T15:45:35;15.50;72.20
80274;DHT22;69576;51.902;-8.462;2023-11-18T15:48:01;15.50;72.20